NWS Home NWS Lubbock West Texas Mesonet South Sector Latest Conditions as of 0632 PM, Sat May 25, 2019

Latest   N   C   S   Daily Sum   3hrΔ   24hrΔ   Soil Data 
Site Map   24hr Precip   72hr Precip   Google Plot


Station Time of Last Temp Dew Pt. RH Wind Direction Wind Speed Wind Gust Max Wind Max Temp Min Temp Max RH Min RH Altimeter 1HR Rain Today's Rain Solar Rad Wind ChillRed Flag
Andrews 2E  06:25 PM 82 63 54% SE1824 32 mph 135° @ 0605 PM 86 69 84 48 29.91" 0 0.00 264    
Aspermont 3NE  06:25 PM 84 70 65% SE1524 29 mph 176° @ 0100 PM 86 70 91 62 29.87" 0 0.00 336    
Big Bend NP - Castolon  06:25 PM 107 31 7% E911 25 mph 131° @ 0541 AM 108 82 58 7 29.71" 0 0.00 456    
Big Bend NP - Persimmon Gap  06:25 PM 97 60 29% NE79 22 mph 137° @ 0421 PM 103 72 87 10 29.81" 0 0.00 278    
Big Lake 1WNW  06:25 PM 78 67 68% SE913 32 mph 162° @ 0429 AM 84 71 92 59 29.94" 0 0.00 14    
Brownfield 2S  06:25 PM 83 65 55% S2834 39 mph 173° @ 0600 PM 86 65 94 50 29.90" 0 0.00 417    
Clyde 2WNW  06:25 PM 81 71 71% SE811 30 mph 168° @ 0242 PM 85 69 91 61 29.95" 0 0.00 161    
Colorado City 5NW  06:25 PM 81 69 68% SE1621 29 mph 161° @ 0958 AM 83 69 94 63 29.89" 0 0.00 151    
Coyanosa 2N  06:25 PM 76 62 63% SE1724 35 mph 88° @ 0528 PM 88 71 83 52 29.86" 0 0.02 432    
Crane 1NNW   06:25 PM 70 65 83% SE1520 35 mph 350° @ 0423 PM 87 64 95 54 29.91" 0.02 0.70 69    
Dell City  06:25 PM 93 35 13% SW511 24 mph 238° @ 0512 PM 94 54 60 11 29.86" 0 0.00 490    
Denver City 7WNW  06:25 PM 81 63 56% SE2127 49 mph 182° @ 0435 PM 87 63 97 39 29.90" 0 0.51 433    
Fluvanna 3WNW  06:25 PM 82 65 58% S2429 38 mph 157° @ 0555 PM 83 68 95 57 29.91" 0 0.00 435    
Fort Chadbourne  06:25 PM 80 70 71% SE68 27 mph 149° @ 0153 PM 85 69 100 61 29.94" 0 0.01 60    
Fort Lancaster  06:25 PM 87 68 54% SE1724 34 mph 139° @ 0451 AM 89 75 89 52 29.89" 0 0.00 334    
Fort McKavett  06:25 PM 85 65 53% SE1318 30 mph 161° @ 0348 PM 88 72 86 51 29.95" 0 0.00 174    
Gail 2ESE  06:25 PM 83 65 59% S2027 32 mph 150° @ 0530 PM 84 68 93 58 29.89" 0 0.00 368    
Graham 5SSW  06:25 PM 81 65 63% S2332 44 mph 154° @ 0500 PM 81 68 96 61 29.87" 0 0.00 446    
Guadalupe Mtns Natl Park  06:25 PM 85 23 10% S1621 29 mph 241° @ 0332 PM 86 61 77 10 30.02" 0 0.00 475   2
Haskell 1NW  06:25 PM 85 68 61% S1625 28 mph 172° @ 1220 PM 87 71 87 58 29.88" 0 0.00 345    
Hobbs NM 5NW  06:25 PM 85 60 44% SE1924 49 mph 176° @ 0408 PM 88 67 88 25 29.93" 0 0.00 423    
Jayton 1SSE  06:25 PM 84 68 61% S1724 30 mph 166° @ 1010 AM 84 66 94 61 29.86" 0 0.00 428    
Junction 1SSW  06:25 PM 87 66 51% SE1423 30 mph 140° @ 0107 PM 90 73 94 48 29.95" 0 0.00 339    
Lake Alan Henry 1NW  06:25 PM 83 66 56% S2633 36 mph 181° @ 0620 PM 84 70 90 56 29.85" 0 0.00 378    
Lamesa 2SE  06:25 PM 82 65 61% S2835 36 mph 154° @ 0555 PM 83 68 95 59 29.91" 0 0.00 398    
Lomax 1SSE  06:25 PM 79 68 69% SE1719 36 mph 171° @ 0123 PM 86 70 96 55 29.90" 0 0.02 103    
McCamey 1SSW  06:25 PM 64 62 96% W4857 57 mph 277° @ 0625 PM 87 64 96 55 29.97" 0.27 0.27 1    
Menard 2NW   06:25 PM 84 67 56% SE1417 30 mph 159° @ 0356 PM 87 72 94 52 29.94" 0 0.00 201    
Mertzon 3NNE  06:25 PM 80 67 63% SE1216 31 mph 160° @ 0416 PM 86 71 100 57 29.93" 0 0.00 22    
New Home  06:25 PM 81 67 63% S2027 35 mph 179° @ 0603 PM 82 63 98 61 29.93" 0 0.00 154    
O'Donnell 1N  06:25 PM 81 62 55% S2233 34 mph 161° @ 0555 PM 83 68 99 54 29.90" 0 0.00 297    
Plains 3N  06:25 PM 80 66 65% SE2229 66 mph 157° @ 0455 PM 87 63 97 46 29.91" 0 0.15 447    
Post 1NE  06:25 PM 83 66 58% S2128 35 mph 167° @ 0615 PM 83 65 99 58 29.87" 0 0.00 366    
Rotan 5W  06:25 PM 85 68 57% SE2631 35 mph 149° @ 0623 PM 85 70 91 56 29.88" 0 0.00 433    
San Angelo 7NW  06:25 PM 82 64 56% SE1114 28 mph 153° @ 0405 PM 88 70 92 47 29.92" 0 0.02 17    
Seagraves 1SW  06:25 PM 84 64 55% SE2128 36 mph 150° @ 0430 PM 88 67 93 48 29.89" 0 0.02 396    
Segovia 7SSW  06:25 PM 84 65 54% SE1619 32 mph 131° @ 0340 PM 86 72 91 50 29.98" 0 0.00 367    
Seminole 2NNE  06:25 PM 83 62 52% SE2733 33 mph 143° @ 0625 PM 86 66 90 49 29.90" 0 0.00 450    
Sierra Blanca 1SSE  06:25 PM 91 28 10% S1517 34 mph 208° @ 0457 PM 92 56 64 9 29.93" 0 0.00 503   11
Snyder 3E  06:25 PM 83 66 60% SE2534 37 mph 157° @ 0615 PM 84 68 99 58 29.88" 0 0.00 389    
Snyder 3SSW  06:25 PM 83 67 59% SE2533 35 mph 152° @ 0624 PM 84 69 97 58 29.88" 0 0.00 405    
St. Lawrence 5SW  06:25 PM 75 68 82% SE1315 31 mph 160° @ 0120 PM 82 70 100 62 29.92" 0 0.03 6    
Stamford 5ESE  06:25 PM 86 71 61% SE2024 33 mph 166° @ 1132 AM 89 71 85 55 29.89" 0 0.00 175    
Sterling City 4WSW  06:25 PM 77 67 71% SE68 30 mph 147° @ 0203 PM 86 69 100 55 29.94" 0 0.07 9    
Sundown 8WSW  06:25 PM 80 64 62% S2634 54 mph 163° @ 0505 PM 85 64 98 50 29.91" 0 0.07 400    
Sweetwater 11SW   06:25 PM 79 68 68% S1012 30 mph 159° @ 0120 PM 84 68 96 61 29.95" 0 0.00 77    
Tahoka 3NNE  06:25 PM 80 66 62% S3034 38 mph 169° @ 0612 PM 82 64 96 62 29.91" 0 0.00 393    
Tarzan 2WNW  06:25 PM 83 67 60% SE2125 35 mph 150° @ 0441 PM 84 70 96 58 29.91" 0 0.00 422    
Tatum NM 2SW  06:25 PM 84 59 46% S2430 41 mph 142° @ 1215 PM 90 59 93 19 29.91" 0 0.32 493    
Throckmorton 1SW  01:15 PM 82 71 68% S811 28 mph 166° @ 1219 PM 85 69 91 64 --0 0.00 526    
Van Horn 3ENE  06:25 PM 94 26 9% SW1016 26 mph 201° @ 0331 PM 95 66 85 8 29.89" 0 0.00 521    
Wall 2E  06:25 PM 85 67 54% SE1214 34 mph 158° @ 0350 PM 92 73 86 44 29.93" 0 0.00 35    
Weinert 2NNE  06:25 PM 84 70 62% S1619 34 mph 191° @ 1145 AM 88 69 91 53 29.88" 0 0.00 163    
Welch  06:25 PM 84 66 56% S2429 36 mph 160° @ 0544 PM 88 67 99 51 29.91" 0 0.00 415    

West Texas Mesonet Home   Site Map/Menu  NWS Lubbock Soil Data  Daily Summary Page  24hr Precip  72hr Precip  Google Plot